sensor_id;sensor_type;location;lat;lon;timestamp;temperature;humidity
8105;DHT22;4095;48.942;9.104;2022-10-16T00:01:24;17.30;99.90
8105;DHT22;4095;48.942;9.104;2022-10-16T00:03:50;17.20;99.90
8105;DHT22;4095;48.942;9.104;2022-10-16T00:06:18;17.20;99.90
8105;DHT22;4095;48.942;9.104;2022-10-16T00:08:44;17.20;99.90
8105;DHT22;4095;48.942;9.104;2022-10-16T00:11:22;17.20;99.90
8105;DHT22;4095;48.942;9.104;2022-10-16T00:13:49;17.20;99.90
8105;DHT22;4095;48.942;9.104;2022-10-16T00:16:16;17.20;99.90
8105;DHT22;4095;48.942;9.104;2022-10-16T00:18:42;17.20;99.90
8105;DHT22;4095;48.942;9.104;2022-10-16T00:21:10;17.20;99.90
8105;DHT22;4095;48.942;9.104;2022-10-16T00:23:36;17.20;99.90
8105;DHT22;4095;48.942;9.104;2022-10-16T00:26:05;17.20;99.90
8105;DHT22;4095;48.942;9.104;2022-10-16T00:28:31;17.20;99.90
8105;DHT22;4095;48.942;9.104;2022-10-16T00:30:57;17.20;99.90
8105;DHT22;4095;48.942;9.104;2022-10-16T00:33:23;17.20;99.90
8105;DHT22;4095;48.942;9.104;2022-10-16T00:35:49;17.20;99.90
8105;DHT22;4095;48.942;9.104;2022-10-16T00:38:16;17.20;99.90
8105;DHT22;4095;48.942;9.104;2022-10-16T00:40:41;17.20;99.90
8105;DHT22;4095;48.942;9.104;2022-10-16T00:46:00;17.20;99.90
8105;DHT22;4095;48.942;9.104;2022-10-16T00:48:26;17.10;99.90
8105;DHT22;4095;48.942;9.104;2022-10-16T00:50:52;17.20;99.90
8105;DHT22;4095;48.942;9.104;2022-10-16T00:53:18;17.10;99.90
8105;DHT22;4095;48.942;9.104;2022-10-16T00:55:44;17.20;99.90
8105;DHT22;4095;48.942;9.104;2022-10-16T00:58:11;17.20;99.90
8105;DHT22;4095;48.942;9.104;2022-10-16T01:00:37;17.20;99.90
8105;DHT22;4095;48.942;9.104;2022-10-16T01:03:21;17.20;99.90
8105;DHT22;4095;48.942;9.104;2022-10-16T01:05:52;17.20;99.90
8105;DHT22;4095;48.942;9.104;2022-10-16T01:08:34;17.20;99.90
8105;DHT22;4095;48.942;9.104;2022-10-16T01:11:22;17.20;99.90
8105;DHT22;4095;48.942;9.104;2022-10-16T01:13:55;17.20;99.90
8105;DHT22;4095;48.942;9.104;2022-10-16T01:16:34;17.20;99.90
8105;DHT22;4095;48.942;9.104;2022-10-16T01:22:03;17.20;99.90
8105;DHT22;4095;48.942;9.104;2022-10-16T01:24:43;17.20;99.90
8105;DHT22;4095;48.942;9.104;2022-10-16T01:27:27;17.20;99.90
8105;DHT22;4095;48.942;9.104;2022-10-16T01:35:16;17.10;99.90
8105;DHT22;4095;48.942;9.104;2022-10-16T01:37:48;17.10;99.90
8105;DHT22;4095;48.942;9.104;2022-10-16T01:40:19;17.10;99.90
8105;DHT22;4095;48.942;9.104;2022-10-16T01:42:50;17.10;99.90
8105;DHT22;4095;48.942;9.104;2022-10-16T01:45:19;17.10;99.90
8105;DHT22;4095;48.942;9.104;2022-10-16T01:47:46;17.10;99.90
8105;DHT22;4095;48.942;9.104;2022-10-16T01:50:15;17.20;99.90
8105;DHT22;4095;48.942;9.104;2022-10-16T01:52:44;17.20;99.90
8105;DHT22;4095;48.942;9.104;2022-10-16T01:55:18;17.20;99.90
8105;DHT22;4095;48.942;9.104;2022-10-16T01:57:47;17.20;99.90
8105;DHT22;4095;48.942;9.104;2022-10-16T02:00:16;17.20;99.90
8105;DHT22;4095;48.942;9.104;2022-10-16T02:02:45;17.20;99.90
8105;DHT22;4095;48.942;9.104;2022-10-16T02:07:58;17.20;99.90
8105;DHT22;4095;48.942;9.104;2022-10-16T02:10:25;17.20;99.90
8105;DHT22;4095;48.942;9.104;2022-10-16T02:12:58;17.20;99.90
8105;DHT22;4095;48.942;9.104;2022-10-16T02:15:24;17.20;99.90
8105;DHT22;4095;48.942;9.104;2022-10-16T02:17:50;17.20;99.90
8105;DHT22;4095;48.942;9.104;2022-10-16T02:20:16;17.20;99.90
8105;DHT22;4095;48.942;9.104;2022-10-16T02:22:47;17.20;99.90
8105;DHT22;4095;48.942;9.104;2022-10-16T02:30:51;17.30;99.90
8105;DHT22;4095;48.942;9.104;2022-10-16T02:33:19;17.30;99.90
8105;DHT22;4095;48.942;9.104;2022-10-16T02:35:47;17.30;99.90
8105;DHT22;4095;48.942;9.104;2022-10-16T02:38:16;17.30;99.90
8105;DHT22;4095;48.942;9.104;2022-10-16T02:40:42;17.30;99.90
8105;DHT22;4095;48.942;9.104;2022-10-16T02:43:08;17.30;99.90
8105;DHT22;4095;48.942;9.104;2022-10-16T02:45:34;17.30;99.90
8105;DHT22;4095;48.942;9.104;2022-10-16T02:48:00;17.30;99.90
8105;DHT22;4095;48.942;9.104;2022-10-16T02:50:26;17.40;99.90
8105;DHT22;4095;48.942;9.104;2022-10-16T02:52:51;17.30;99.90
8105;DHT22;4095;48.942;9.104;2022-10-16T02:55:17;17.30;99.90
8105;DHT22;4095;48.942;9.104;2022-10-16T02:57:43;17.30;99.90
8105;DHT22;4095;48.942;9.104;2022-10-16T03:00:13;17.30;99.90
8105;DHT22;4095;48.942;9.104;2022-10-16T03:02:40;17.30;99.90
8105;DHT22;4095;48.942;9.104;2022-10-16T03:05:05;17.30;99.90
8105;DHT22;4095;48.942;9.104;2022-10-16T03:07:31;17.30;99.90
8105;DHT22;4095;48.942;9.104;2022-10-16T03:09:57;17.30;99.90
8105;DHT22;4095;48.942;9.104;2022-10-16T03:12:26;17.20;99.90
8105;DHT22;4095;48.942;9.104;2022-10-16T03:14:51;17.20;99.90
8105;DHT22;4095;48.942;9.104;2022-10-16T03:17:17;17.20;99.90
8105;DHT22;4095;48.942;9.104;2022-10-16T03:19:42;17.20;99.90
8105;DHT22;4095;48.942;9.104;2022-10-16T03:22:08;17.20;99.90
8105;DHT22;4095;48.942;9.104;2022-10-16T03:24:34;17.20;99.90
8105;DHT22;4095;48.942;9.104;2022-10-16T03:26:59;17.20;99.90
8105;DHT22;4095;48.942;9.104;2022-10-16T03:29:25;17.20;99.90
8105;DHT22;4095;48.942;9.104;2022-10-16T03:31:51;17.20;99.90
8105;DHT22;4095;48.942;9.104;2022-10-16T03:34:17;17.20;99.90
8105;DHT22;4095;48.942;9.104;2022-10-16T03:36:42;17.20;99.90
8105;DHT22;4095;48.942;9.104;2022-10-16T03:39:08;17.20;99.90
8105;DHT22;4095;48.942;9.104;2022-10-16T03:41:33;17.20;99.90
8105;DHT22;4095;48.942;9.104;2022-10-16T03:43:59;17.10;99.90
8105;DHT22;4095;48.942;9.104;2022-10-16T03:46:25;17.10;99.90
8105;DHT22;4095;48.942;9.104;2022-10-16T03:48:50;17.10;99.90
8105;DHT22;4095;48.942;9.104;2022-10-16T03:51:16;17.00;99.90
8105;DHT22;4095;48.942;9.104;2022-10-16T03:53:41;17.00;99.90
8105;DHT22;4095;48.942;9.104;2022-10-16T03:56:07;17.00;99.90
8105;DHT22;4095;48.942;9.104;2022-10-16T03:58:33;17.00;99.90
8105;DHT22;4095;48.942;9.104;2022-10-16T04:00:58;17.00;99.90
8105;DHT22;4095;48.942;9.104;2022-10-16T04:03:24;16.90;99.90
8105;DHT22;4095;48.942;9.104;2022-10-16T04:05:50;16.90;99.90
8105;DHT22;4095;48.942;9.104;2022-10-16T04:08:16;16.90;99.90
8105;DHT22;4095;48.942;9.104;2022-10-16T04:10:45;16.90;99.90
8105;DHT22;4095;48.942;9.104;2022-10-16T04:13:11;16.80;99.90
8105;DHT22;4095;48.942;9.104;2022-10-16T04:15:37;16.80;99.90
8105;DHT22;4095;48.942;9.104;2022-10-16T04:18:03;16.80;99.90
8105;DHT22;4095;48.942;9.104;2022-10-16T04:20:28;16.80;99.90
8105;DHT22;4095;48.942;9.104;2022-10-16T04:22:55;16.80;99.90
8105;DHT22;4095;48.942;9.104;2022-10-16T04:25:21;16.80;99.90
8105;DHT22;4095;48.942;9.104;2022-10-16T04:27:46;16.80;99.90
8105;DHT22;4095;48.942;9.104;2022-10-16T04:30:12;16.80;99.90
8105;DHT22;4095;48.942;9.104;2022-10-16T04:32:38;16.70;99.90
8105;DHT22;4095;48.942;9.104;2022-10-16T04:35:04;16.80;99.90
8105;DHT22;4095;48.942;9.104;2022-10-16T04:37:29;16.80;99.90
8105;DHT22;4095;48.942;9.104;2022-10-16T04:39:55;16.80;99.90
8105;DHT22;4095;48.942;9.104;2022-10-16T04:42:21;16.80;99.90
8105;DHT22;4095;48.942;9.104;2022-10-16T04:44:46;16.80;99.90
8105;DHT22;4095;48.942;9.104;2022-10-16T04:47:12;16.80;99.90
8105;DHT22;4095;48.942;9.104;2022-10-16T04:49:38;16.80;99.90
8105;DHT22;4095;48.942;9.104;2022-10-16T04:52:04;16.80;99.90
8105;DHT22;4095;48.942;9.104;2022-10-16T04:54:29;16.80;99.90
8105;DHT22;4095;48.942;9.104;2022-10-16T04:56:55;16.80;99.90
8105;DHT22;4095;48.942;9.104;2022-10-16T04:59:21;16.80;99.90
8105;DHT22;4095;48.942;9.104;2022-10-16T05:01:48;16.80;99.90
8105;DHT22;4095;48.942;9.104;2022-10-16T05:04:14;16.80;99.90
8105;DHT22;4095;48.942;9.104;2022-10-16T05:06:41;16.80;99.90
8105;DHT22;4095;48.942;9.104;2022-10-16T05:09:07;16.80;99.90
8105;DHT22;4095;48.942;9.104;2022-10-16T05:11:33;16.80;99.90
8105;DHT22;4095;48.942;9.104;2022-10-16T05:13:59;16.80;99.90
8105;DHT22;4095;48.942;9.104;2022-10-16T05:16:24;16.80;99.90
8105;DHT22;4095;48.942;9.104;2022-10-16T05:18:51;16.80;99.90
8105;DHT22;4095;48.942;9.104;2022-10-16T05:21:17;16.80;99.90
8105;DHT22;4095;48.942;9.104;2022-10-16T05:23:43;16.80;99.90
8105;DHT22;4095;48.942;9.104;2022-10-16T05:26:08;16.80;99.90
8105;DHT22;4095;48.942;9.104;2022-10-16T05:28:35;16.80;99.90
8105;DHT22;4095;48.942;9.104;2022-10-16T05:31:05;16.80;99.90
8105;DHT22;4095;48.942;9.104;2022-10-16T05:33:31;16.70;99.90
8105;DHT22;4095;48.942;9.104;2022-10-16T05:35:56;16.70;99.90
8105;DHT22;4095;48.942;9.104;2022-10-16T05:38:22;16.70;99.90
8105;DHT22;4095;48.942;9.104;2022-10-16T05:40:51;16.70;99.90
8105;DHT22;4095;48.942;9.104;2022-10-16T05:43:18;16.70;99.90
8105;DHT22;4095;48.942;9.104;2022-10-16T05:45:43;16.70;99.90
8105;DHT22;4095;48.942;9.104;2022-10-16T05:48:09;16.60;99.90
8105;DHT22;4095;48.942;9.104;2022-10-16T05:50:34;16.60;99.90
8105;DHT22;4095;48.942;9.104;2022-10-16T05:53:00;16.60;99.90
8105;DHT22;4095;48.942;9.104;2022-10-16T05:55:25;16.60;99.90
8105;DHT22;4095;48.942;9.104;2022-10-16T05:57:54;16.60;99.90
8105;DHT22;4095;48.942;9.104;2022-10-16T06:00:20;16.60;99.90
8105;DHT22;4095;48.942;9.104;2022-10-16T06:02:45;16.60;99.90
8105;DHT22;4095;48.942;9.104;2022-10-16T06:05:11;16.60;99.90
8105;DHT22;4095;48.942;9.104;2022-10-16T06:07:36;16.60;99.90
8105;DHT22;4095;48.942;9.104;2022-10-16T06:10:03;16.60;99.90
8105;DHT22;4095;48.942;9.104;2022-10-16T06:12:29;16.60;99.90
8105;DHT22;4095;48.942;9.104;2022-10-16T06:14:55;16.60;99.90
8105;DHT22;4095;48.942;9.104;2022-10-16T06:17:20;16.60;99.90
8105;DHT22;4095;48.942;9.104;2022-10-16T06:19:46;16.70;99.90
8105;DHT22;4095;48.942;9.104;2022-10-16T06:22:12;16.70;99.90
8105;DHT22;4095;48.942;9.104;2022-10-16T06:24:37;16.80;99.90
8105;DHT22;4095;48.942;9.104;2022-10-16T06:27:04;16.80;99.90
8105;DHT22;4095;48.942;9.104;2022-10-16T06:29:29;16.80;99.90
8105;DHT22;4095;48.942;9.104;2022-10-16T06:31:55;16.80;99.90
8105;DHT22;4095;48.942;9.104;2022-10-16T06:34:20;16.80;99.90
8105;DHT22;4095;48.942;9.104;2022-10-16T06:36:46;16.90;99.90
8105;DHT22;4095;48.942;9.104;2022-10-16T06:39:12;16.90;99.90
8105;DHT22;4095;48.942;9.104;2022-10-16T06:41:37;16.90;99.90
8105;DHT22;4095;48.942;9.104;2022-10-16T06:44:07;16.90;99.90
8105;DHT22;4095;48.942;9.104;2022-10-16T06:46:33;16.90;99.90
8105;DHT22;4095;48.942;9.104;2022-10-16T06:48:58;17.00;99.90
8105;DHT22;4095;48.942;9.104;2022-10-16T06:51:25;16.90;99.90
8105;DHT22;4095;48.942;9.104;2022-10-16T06:53:53;17.00;99.90
8105;DHT22;4095;48.942;9.104;2022-10-16T06:56:24;17.10;99.90
8105;DHT22;4095;48.942;9.104;2022-10-16T06:58:51;17.10;99.90
8105;DHT22;4095;48.942;9.104;2022-10-16T07:01:19;17.10;99.90
8105;DHT22;4095;48.942;9.104;2022-10-16T07:03:46;17.10;99.90
8105;DHT22;4095;48.942;9.104;2022-10-16T07:06:15;17.20;99.90
8105;DHT22;4095;48.942;9.104;2022-10-16T07:08:42;17.20;99.90
8105;DHT22;4095;48.942;9.104;2022-10-16T07:11:17;17.20;99.90
8105;DHT22;4095;48.942;9.104;2022-10-16T07:13:44;17.20;99.90
8105;DHT22;4095;48.942;9.104;2022-10-16T07:16:12;17.20;99.90
8105;DHT22;4095;48.942;9.104;2022-10-16T07:18:38;17.20;99.90
8105;DHT22;4095;48.942;9.104;2022-10-16T07:21:10;17.20;99.90
8105;DHT22;4095;48.942;9.104;2022-10-16T07:23:36;17.30;99.90
8105;DHT22;4095;48.942;9.104;2022-10-16T07:26:03;17.30;99.90
8105;DHT22;4095;48.942;9.104;2022-10-16T07:28:30;17.30;99.90
8105;DHT22;4095;48.942;9.104;2022-10-16T07:31:10;17.30;99.90
8105;DHT22;4095;48.942;9.104;2022-10-16T07:33:40;17.30;99.90
8105;DHT22;4095;48.942;9.104;2022-10-16T07:36:07;17.30;99.90
8105;DHT22;4095;48.942;9.104;2022-10-16T07:38:33;17.30;99.90
8105;DHT22;4095;48.942;9.104;2022-10-16T07:41:02;17.20;99.90
8105;DHT22;4095;48.942;9.104;2022-10-16T07:43:29;17.20;99.90
8105;DHT22;4095;48.942;9.104;2022-10-16T07:45:55;17.20;99.90
8105;DHT22;4095;48.942;9.104;2022-10-16T07:48:21;17.20;99.90
8105;DHT22;4095;48.942;9.104;2022-10-16T07:50:47;17.30;99.90
8105;DHT22;4095;48.942;9.104;2022-10-16T07:53:13;17.40;99.90
8105;DHT22;4095;48.942;9.104;2022-10-16T07:55:39;17.40;99.90
8105;DHT22;4095;48.942;9.104;2022-10-16T07:58:05;17.40;99.90
8105;DHT22;4095;48.942;9.104;2022-10-16T08:00:31;17.50;99.90
8105;DHT22;4095;48.942;9.104;2022-10-16T08:02:58;17.50;99.90
8105;DHT22;4095;48.942;9.104;2022-10-16T08:05:27;17.60;99.90
8105;DHT22;4095;48.942;9.104;2022-10-16T08:07:53;17.70;99.90
8105;DHT22;4095;48.942;9.104;2022-10-16T08:10:21;17.80;99.90
8105;DHT22;4095;48.942;9.104;2022-10-16T08:12:47;17.90;99.90
8105;DHT22;4095;48.942;9.104;2022-10-16T08:15:12;18.00;99.90
8105;DHT22;4095;48.942;9.104;2022-10-16T08:17:38;18.20;99.90
8105;DHT22;4095;48.942;9.104;2022-10-16T08:20:04;18.40;99.90
8105;DHT22;4095;48.942;9.104;2022-10-16T08:22:30;18.60;99.90
8105;DHT22;4095;48.942;9.104;2022-10-16T08:24:56;18.70;99.90
8105;DHT22;4095;48.942;9.104;2022-10-16T08:27:21;18.70;99.90
8105;DHT22;4095;48.942;9.104;2022-10-16T08:29:48;18.80;99.90
8105;DHT22;4095;48.942;9.104;2022-10-16T08:32:14;18.90;99.90
8105;DHT22;4095;48.942;9.104;2022-10-16T08:34:40;19.00;99.90
8105;DHT22;4095;48.942;9.104;2022-10-16T08:37:05;19.00;99.90
8105;DHT22;4095;48.942;9.104;2022-10-16T08:39:33;19.00;99.90
8105;DHT22;4095;48.942;9.104;2022-10-16T08:44:37;19.00;99.90
8105;DHT22;4095;48.942;9.104;2022-10-16T08:47:18;19.00;99.90
8105;DHT22;4095;48.942;9.104;2022-10-16T08:50:09;19.00;99.90
8105;DHT22;4095;48.942;9.104;2022-10-16T08:52:39;19.00;99.90
8105;DHT22;4095;48.942;9.104;2022-10-16T08:55:05;19.00;99.90
8105;DHT22;4095;48.942;9.104;2022-10-16T08:57:31;19.00;99.90
8105;DHT22;4095;48.942;9.104;2022-10-16T09:00:00;19.00;99.90
8105;DHT22;4095;48.942;9.104;2022-10-16T09:03:03;19.00;99.90
8105;DHT22;4095;48.942;9.104;2022-10-16T09:10:59;19.30;99.90
8105;DHT22;4095;48.942;9.104;2022-10-16T09:16:34;19.30;99.90
8105;DHT22;4095;48.942;9.104;2022-10-16T09:21:52;19.60;99.90
8105;DHT22;4095;48.942;9.104;2022-10-16T09:24:20;19.80;99.90
8105;DHT22;4095;48.942;9.104;2022-10-16T09:26:47;20.00;99.90
8105;DHT22;4095;48.942;9.104;2022-10-16T09:29:14;20.30;99.90
8105;DHT22;4095;48.942;9.104;2022-10-16T09:31:42;20.50;99.90
8105;DHT22;4095;48.942;9.104;2022-10-16T09:34:35;20.80;99.90
8105;DHT22;4095;48.942;9.104;2022-10-16T09:37:09;21.00;99.90
8105;DHT22;4095;48.942;9.104;2022-10-16T09:39:48;21.00;99.90
8105;DHT22;4095;48.942;9.104;2022-10-16T09:42:27;21.20;99.90
8105;DHT22;4095;48.942;9.104;2022-10-16T09:44:56;21.50;99.90
8105;DHT22;4095;48.942;9.104;2022-10-16T09:47:26;21.70;99.90
8105;DHT22;4095;48.942;9.104;2022-10-16T09:49:55;21.90;99.90
8105;DHT22;4095;48.942;9.104;2022-10-16T09:52:23;22.10;99.90
8105;DHT22;4095;48.942;9.104;2022-10-16T09:54:53;22.40;99.90
8105;DHT22;4095;48.942;9.104;2022-10-16T09:57:20;22.60;99.90
8105;DHT22;4095;48.942;9.104;2022-10-16T10:02:30;23.30;99.90
8105;DHT22;4095;48.942;9.104;2022-10-16T10:04:57;23.30;99.90
8105;DHT22;4095;48.942;9.104;2022-10-16T10:07:27;23.40;99.90
8105;DHT22;4095;48.942;9.104;2022-10-16T10:09:55;23.40;99.90
8105;DHT22;4095;48.942;9.104;2022-10-16T10:12:24;23.40;99.90
8105;DHT22;4095;48.942;9.104;2022-10-16T10:14:52;23.70;99.90
8105;DHT22;4095;48.942;9.104;2022-10-16T10:17:26;23.90;99.90
8105;DHT22;4095;48.942;9.104;2022-10-16T10:22:23;24.20;99.90
8105;DHT22;4095;48.942;9.104;2022-10-16T10:30:23;23.90;99.90
8105;DHT22;4095;48.942;9.104;2022-10-16T10:33:19;24.60;99.90
8105;DHT22;4095;48.942;9.104;2022-10-16T10:41:20;24.30;99.00
8105;DHT22;4095;48.942;9.104;2022-10-16T10:46:36;23.70;99.90
8105;DHT22;4095;48.942;9.104;2022-10-16T10:54:45;23.10;99.90
8105;DHT22;4095;48.942;9.104;2022-10-16T11:00:31;23.10;99.90
8105;DHT22;4095;48.942;9.104;2022-10-16T11:05:59;23.50;99.90
8105;DHT22;4095;48.942;9.104;2022-10-16T11:08:36;23.90;99.90
8105;DHT22;4095;48.942;9.104;2022-10-16T11:11:20;24.50;99.90
8105;DHT22;4095;48.942;9.104;2022-10-16T11:14:02;26.00;98.80
8105;DHT22;4095;48.942;9.104;2022-10-16T11:16:34;27.20;97.00
8105;DHT22;4095;48.942;9.104;2022-10-16T11:21:56;30.00;94.20
8105;DHT22;4095;48.942;9.104;2022-10-16T11:24:47;31.00;91.80
8105;DHT22;4095;48.942;9.104;2022-10-16T11:27:21;30.70;92.10
8105;DHT22;4095;48.942;9.104;2022-10-16T11:30:21;30.50;91.60
8105;DHT22;4095;48.942;9.104;2022-10-16T11:35:54;30.60;91.20
8105;DHT22;4095;48.942;9.104;2022-10-16T11:38:32;31.50;91.10
8105;DHT22;4095;48.942;9.104;2022-10-16T11:41:36;32.10;88.40
8105;DHT22;4095;48.942;9.104;2022-10-16T11:46:29;32.70;86.50
8105;DHT22;4095;48.942;9.104;2022-10-16T11:49:15;32.40;86.00
8105;DHT22;4095;48.942;9.104;2022-10-16T11:54:54;31.70;86.80
8105;DHT22;4095;48.942;9.104;2022-10-16T11:57:24;30.80;90.10
8105;DHT22;4095;48.942;9.104;2022-10-16T11:59:55;29.80;90.30
8105;DHT22;4095;48.942;9.104;2022-10-16T12:05:27;28.60;91.50
8105;DHT22;4095;48.942;9.104;2022-10-16T12:10:33;28.70;92.60
8105;DHT22;4095;48.942;9.104;2022-10-16T12:13:02;28.80;92.60
8105;DHT22;4095;48.942;9.104;2022-10-16T12:15:30;28.80;92.50
8105;DHT22;4095;48.942;9.104;2022-10-16T12:17:57;28.60;92.40
8105;DHT22;4095;48.942;9.104;2022-10-16T12:20:33;28.20;92.80
8105;DHT22;4095;48.942;9.104;2022-10-16T12:23:04;27.70;94.00
8105;DHT22;4095;48.942;9.104;2022-10-16T12:25:35;27.30;94.10
8105;DHT22;4095;48.942;9.104;2022-10-16T12:28:27;27.20;94.70
8105;DHT22;4095;48.942;9.104;2022-10-16T12:31:02;27.70;94.40
8105;DHT22;4095;48.942;9.104;2022-10-16T12:33:33;28.50;93.40
8105;DHT22;4095;48.942;9.104;2022-10-16T12:36:03;28.90;92.60
8105;DHT22;4095;48.942;9.104;2022-10-16T12:41:07;28.40;92.90
8105;DHT22;4095;48.942;9.104;2022-10-16T12:43:47;27.90;93.20
8105;DHT22;4095;48.942;9.104;2022-10-16T12:48:43;26.80;94.30
8105;DHT22;4095;48.942;9.104;2022-10-16T13:05:21;25.60;97.00
8105;DHT22;4095;48.942;9.104;2022-10-16T13:18:58;24.60;95.40
8105;DHT22;4095;48.942;9.104;2022-10-16T13:27:03;24.30;97.20
8105;DHT22;4095;48.942;9.104;2022-10-16T13:29:31;24.20;97.80
8105;DHT22;4095;48.942;9.104;2022-10-16T13:31:59;24.10;98.40
8105;DHT22;4095;48.942;9.104;2022-10-16T13:34:26;24.10;98.80
8105;DHT22;4095;48.942;9.104;2022-10-16T13:36:53;24.00;98.60
8105;DHT22;4095;48.942;9.104;2022-10-16T13:39:28;24.00;99.20
8105;DHT22;4095;48.942;9.104;2022-10-16T13:42:19;24.10;99.10
8105;DHT22;4095;48.942;9.104;2022-10-16T13:44:50;24.10;97.60
8105;DHT22;4095;48.942;9.104;2022-10-16T13:47:27;24.10;97.40
8105;DHT22;4095;48.942;9.104;2022-10-16T13:50:01;24.10;97.50
8105;DHT22;4095;48.942;9.104;2022-10-16T13:52:28;24.00;97.60
8105;DHT22;4095;48.942;9.104;2022-10-16T13:54:54;23.90;97.80
8105;DHT22;4095;48.942;9.104;2022-10-16T13:57:23;24.00;98.90
8105;DHT22;4095;48.942;9.104;2022-10-16T13:59:48;24.00;98.60
8105;DHT22;4095;48.942;9.104;2022-10-16T14:02:25;23.90;97.70
8105;DHT22;4095;48.942;9.104;2022-10-16T14:04:51;23.90;97.80
8105;DHT22;4095;48.942;9.104;2022-10-16T14:07:25;23.90;98.10
8105;DHT22;4095;48.942;9.104;2022-10-16T14:09:52;23.80;98.40
8105;DHT22;4095;48.942;9.104;2022-10-16T14:12:19;23.70;98.30
8105;DHT22;4095;48.942;9.104;2022-10-16T14:14:47;23.70;97.90
8105;DHT22;4095;48.942;9.104;2022-10-16T14:17:26;23.60;98.00
8105;DHT22;4095;48.942;9.104;2022-10-16T14:19:55;23.60;97.70
8105;DHT22;4095;48.942;9.104;2022-10-16T14:22:48;23.60;98.00
8105;DHT22;4095;48.942;9.104;2022-10-16T14:27:44;23.50;98.20
8105;DHT22;4095;48.942;9.104;2022-10-16T14:32:41;23.50;98.80
8105;DHT22;4095;48.942;9.104;2022-10-16T14:35:29;23.40;98.90
8105;DHT22;4095;48.942;9.104;2022-10-16T14:37:56;23.40;99.00
8105;DHT22;4095;48.942;9.104;2022-10-16T14:40:31;23.40;98.20
8105;DHT22;4095;48.942;9.104;2022-10-16T14:42:57;23.40;98.80
8105;DHT22;4095;48.942;9.104;2022-10-16T14:45:26;23.30;99.00
8105;DHT22;4095;48.942;9.104;2022-10-16T14:47:55;23.30;99.10
8105;DHT22;4095;48.942;9.104;2022-10-16T14:50:22;23.30;99.50
8105;DHT22;4095;48.942;9.104;2022-10-16T14:52:48;23.20;99.90
8105;DHT22;4095;48.942;9.104;2022-10-16T14:55:14;23.20;99.20
8105;DHT22;4095;48.942;9.104;2022-10-16T14:57:40;23.20;99.40
8105;DHT22;4095;48.942;9.104;2022-10-16T15:00:21;23.20;99.90
8105;DHT22;4095;48.942;9.104;2022-10-16T15:02:48;23.10;99.90
8105;DHT22;4095;48.942;9.104;2022-10-16T15:05:25;23.10;99.90
8105;DHT22;4095;48.942;9.104;2022-10-16T15:07:53;23.10;99.90
8105;DHT22;4095;48.942;9.104;2022-10-16T15:10:20;23.00;99.90
8105;DHT22;4095;48.942;9.104;2022-10-16T15:12:47;23.00;99.70
8105;DHT22;4095;48.942;9.104;2022-10-16T15:17:57;23.00;99.80
8105;DHT22;4095;48.942;9.104;2022-10-16T15:20:24;22.90;99.80
8105;DHT22;4095;48.942;9.104;2022-10-16T15:22:50;22.90;99.90
8105;DHT22;4095;48.942;9.104;2022-10-16T15:27:41;22.80;99.90
8105;DHT22;4095;48.942;9.104;2022-10-16T15:30:07;22.70;99.90
8105;DHT22;4095;48.942;9.104;2022-10-16T15:32:32;22.70;99.90
8105;DHT22;4095;48.942;9.104;2022-10-16T15:34:58;22.60;99.90
8105;DHT22;4095;48.942;9.104;2022-10-16T15:37:24;22.50;99.90
8105;DHT22;4095;48.942;9.104;2022-10-16T15:39:50;22.50;99.90
8105;DHT22;4095;48.942;9.104;2022-10-16T15:42:16;22.40;99.90
8105;DHT22;4095;48.942;9.104;2022-10-16T15:44:41;22.40;99.90
8105;DHT22;4095;48.942;9.104;2022-10-16T15:47:07;22.40;99.90
8105;DHT22;4095;48.942;9.104;2022-10-16T15:49:33;22.30;99.90
8105;DHT22;4095;48.942;9.104;2022-10-16T15:51:59;22.30;99.90
8105;DHT22;4095;48.942;9.104;2022-10-16T15:54:24;22.40;99.90
8105;DHT22;4095;48.942;9.104;2022-10-16T15:56:50;22.30;99.90
8105;DHT22;4095;48.942;9.104;2022-10-16T15:59:15;22.20;99.90
8105;DHT22;4095;48.942;9.104;2022-10-16T16:01:41;22.20;99.90
8105;DHT22;4095;48.942;9.104;2022-10-16T16:04:07;22.20;99.90
8105;DHT22;4095;48.942;9.104;2022-10-16T16:06:32;22.20;99.90
8105;DHT22;4095;48.942;9.104;2022-10-16T16:08:58;22.10;99.90
8105;DHT22;4095;48.942;9.104;2022-10-16T16:11:25;22.00;99.90
8105;DHT22;4095;48.942;9.104;2022-10-16T16:13:50;21.90;99.90
8105;DHT22;4095;48.942;9.104;2022-10-16T16:16:17;21.80;99.90
8105;DHT22;4095;48.942;9.104;2022-10-16T16:18:43;21.70;99.90
8105;DHT22;4095;48.942;9.104;2022-10-16T16:21:12;21.60;99.90
8105;DHT22;4095;48.942;9.104;2022-10-16T16:23:38;21.50;99.90
8105;DHT22;4095;48.942;9.104;2022-10-16T16:26:24;21.40;99.90
8105;DHT22;4095;48.942;9.104;2022-10-16T16:28:53;21.30;99.90
8105;DHT22;4095;48.942;9.104;2022-10-16T16:31:20;21.20;99.90
8105;DHT22;4095;48.942;9.104;2022-10-16T16:33:48;21.10;99.90
8105;DHT22;4095;48.942;9.104;2022-10-16T16:36:14;21.10;99.90
8105;DHT22;4095;48.942;9.104;2022-10-16T16:38:39;21.00;99.90
8105;DHT22;4095;48.942;9.104;2022-10-16T16:41:28;21.00;99.90
8105;DHT22;4095;48.942;9.104;2022-10-16T16:43:56;21.00;99.90
8105;DHT22;4095;48.942;9.104;2022-10-16T16:46:26;21.00;99.90
8105;DHT22;4095;48.942;9.104;2022-10-16T16:48:51;20.90;99.90
8105;DHT22;4095;48.942;9.104;2022-10-16T16:51:20;20.80;99.90
8105;DHT22;4095;48.942;9.104;2022-10-16T16:53:48;20.80;99.90
8105;DHT22;4095;48.942;9.104;2022-10-16T16:56:14;20.70;99.90
8105;DHT22;4095;48.942;9.104;2022-10-16T16:58:40;20.60;99.90
8105;DHT22;4095;48.942;9.104;2022-10-16T17:01:10;20.60;99.90
8105;DHT22;4095;48.942;9.104;2022-10-16T17:03:36;20.50;99.90
8105;DHT22;4095;48.942;9.104;2022-10-16T17:06:06;20.40;99.90
8105;DHT22;4095;48.942;9.104;2022-10-16T17:08:36;20.40;99.90
8105;DHT22;4095;48.942;9.104;2022-10-16T17:11:02;20.30;99.90
8105;DHT22;4095;48.942;9.104;2022-10-16T17:13:34;20.30;99.90
8105;DHT22;4095;48.942;9.104;2022-10-16T17:16:04;20.20;99.90
8105;DHT22;4095;48.942;9.104;2022-10-16T17:18:31;20.10;99.90
8105;DHT22;4095;48.942;9.104;2022-10-16T17:21:06;20.10;99.90
8105;DHT22;4095;48.942;9.104;2022-10-16T17:23:32;20.00;99.90
8105;DHT22;4095;48.942;9.104;2022-10-16T17:26:07;19.90;99.90
8105;DHT22;4095;48.942;9.104;2022-10-16T17:28:33;19.80;99.90
8105;DHT22;4095;48.942;9.104;2022-10-16T17:31:11;19.80;99.90
8105;DHT22;4095;48.942;9.104;2022-10-16T17:33:37;19.70;99.90
8105;DHT22;4095;48.942;9.104;2022-10-16T17:36:03;19.60;99.90
8105;DHT22;4095;48.942;9.104;2022-10-16T17:38:29;19.60;99.90
8105;DHT22;4095;48.942;9.104;2022-10-16T17:40:55;19.60;99.90
8105;DHT22;4095;48.942;9.104;2022-10-16T17:43:20;19.60;99.90
8105;DHT22;4095;48.942;9.104;2022-10-16T17:45:46;19.50;99.90
8105;DHT22;4095;48.942;9.104;2022-10-16T17:48:12;19.50;99.90
8105;DHT22;4095;48.942;9.104;2022-10-16T17:50:41;19.40;99.90
8105;DHT22;4095;48.942;9.104;2022-10-16T17:53:07;19.40;99.90
8105;DHT22;4095;48.942;9.104;2022-10-16T17:55:40;19.30;99.90
8105;DHT22;4095;48.942;9.104;2022-10-16T17:58:06;19.20;99.90
8105;DHT22;4095;48.942;9.104;2022-10-16T18:00:32;19.20;99.90
8105;DHT22;4095;48.942;9.104;2022-10-16T18:02:58;19.20;99.90
8105;DHT22;4095;48.942;9.104;2022-10-16T18:05:24;19.10;99.90
8105;DHT22;4095;48.942;9.104;2022-10-16T18:07:49;19.00;99.90
8105;DHT22;4095;48.942;9.104;2022-10-16T18:10:15;18.90;99.90
8105;DHT22;4095;48.942;9.104;2022-10-16T18:12:40;18.90;99.90
8105;DHT22;4095;48.942;9.104;2022-10-16T18:15:06;18.80;99.90
8105;DHT22;4095;48.942;9.104;2022-10-16T18:17:34;18.80;99.90
8105;DHT22;4095;48.942;9.104;2022-10-16T18:20:04;18.70;99.90